Ashby, Massachusetts
Current Conditions -  °F | °C
As of 5:52 PM on Monday 22 Dec 2014 (Local Time) from KFIT Reporting Station
Light Rain Light Rain  
Wind Chill:   Ceiling: 900
Heat Index:   Visibility: 9mi
Dew Point:   Wind: 5mph
Humidity: 86%   Direction: 350°N
Pressure: 30.34"   Gusts: NA
Location:  42.68°N, 71.82°W
Report Text: KFIT 222252Z AUTO 35004KT 9SM -RA OVC009 02/00 A3034 RMK AO2 RAE00B43 SLP277 P0000 T00220000
Loading
Personal Weather Stations






























Interactive Weather Map New forecast layout! Learn more

10-Day Weather Forecast

Advertisements
Track Severe Weather on mobile